sensor_id;sensor_type;location;lat;lon;timestamp;P1;durP1;ratioP1;P2;durP2;ratioP2
5616;SDS011;2830;50.656;7.568;2023-01-28T00:01:20;8.93;;;2.67;;
5616;SDS011;2830;50.656;7.568;2023-01-28T00:03:51;8.80;;;3.22;;
5616;SDS011;2830;50.656;7.568;2023-01-28T00:06:18;8.50;;;2.50;;
5616;SDS011;2830;50.656;7.568;2023-01-28T00:08:45;8.98;;;3.00;;
5616;SDS011;2830;50.656;7.568;2023-01-28T00:11:13;9.38;;;2.90;;
5616;SDS011;2830;50.656;7.568;2023-01-28T00:13:40;10.18;;;3.38;;
5616;SDS011;2830;50.656;7.568;2023-01-28T00:16:07;8.75;;;2.92;;
5616;SDS011;2830;50.656;7.568;2023-01-28T00:18:35;9.93;;;2.90;;
5616;SDS011;2830;50.656;7.568;2023-01-28T00:21:04;9.65;;;3.03;;
5616;SDS011;2830;50.656;7.568;2023-01-28T00:23:32;9.38;;;3.00;;
5616;SDS011;2830;50.656;7.568;2023-01-28T00:26:00;9.65;;;2.90;;
5616;SDS011;2830;50.656;7.568;2023-01-28T00:28:28;8.23;;;2.40;;
5616;SDS011;2830;50.656;7.568;2023-01-28T00:30:55;8.90;;;2.70;;
5616;SDS011;2830;50.656;7.568;2023-01-28T00:33:22;9.73;;;3.17;;
5616;SDS011;2830;50.656;7.568;2023-01-28T00:35:59;9.18;;;3.15;;
5616;SDS011;2830;50.656;7.568;2023-01-28T00:38:26;10.80;;;3.10;;
5616;SDS011;2830;50.656;7.568;2023-01-28T00:40:53;8.85;;;3.15;;
5616;SDS011;2830;50.656;7.568;2023-01-28T00:43:20;11.18;;;3.42;;
5616;SDS011;2830;50.656;7.568;2023-01-28T00:45:47;9.57;;;3.28;;
5616;SDS011;2830;50.656;7.568;2023-01-28T00:48:15;9.70;;;3.30;;
5616;SDS011;2830;50.656;7.568;2023-01-28T00:50:43;9.93;;;3.20;;
5616;SDS011;2830;50.656;7.568;2023-01-28T00:53:10;9.85;;;3.63;;
5616;SDS011;2830;50.656;7.568;2023-01-28T00:55:37;9.20;;;3.08;;
5616;SDS011;2830;50.656;7.568;2023-01-28T00:58:04;9.43;;;3.20;;
5616;SDS011;2830;50.656;7.568;2023-01-28T01:00:31;9.98;;;3.90;;
5616;SDS011;2830;50.656;7.568;2023-01-28T01:02:58;9.20;;;2.83;;
5616;SDS011;2830;50.656;7.568;2023-01-28T01:05:26;11.38;;;3.30;;
5616;SDS011;2830;50.656;7.568;2023-01-28T01:07:54;13.40;;;5.97;;
5616;SDS011;2830;50.656;7.568;2023-01-28T01:10:21;9.73;;;3.70;;
5616;SDS011;2830;50.656;7.568;2023-01-28T01:12:48;9.82;;;3.55;;
5616;SDS011;2830;50.656;7.568;2023-01-28T01:15:16;10.98;;;3.30;;
5616;SDS011;2830;50.656;7.568;2023-01-28T01:17:45;11.13;;;3.92;;
5616;SDS011;2830;50.656;7.568;2023-01-28T01:20:17;10.25;;;3.38;;
5616;SDS011;2830;50.656;7.568;2023-01-28T01:22:44;10.65;;;3.72;;
5616;SDS011;2830;50.656;7.568;2023-01-28T01:25:12;11.48;;;3.55;;
5616;SDS011;2830;50.656;7.568;2023-01-28T01:27:40;10.02;;;3.67;;
5616;SDS011;2830;50.656;7.568;2023-01-28T01:30:07;9.90;;;3.55;;
5616;SDS011;2830;50.656;7.568;2023-01-28T01:32:35;11.15;;;4.47;;
5616;SDS011;2830;50.656;7.568;2023-01-28T01:35:03;11.90;;;5.40;;
5616;SDS011;2830;50.656;7.568;2023-01-28T01:37:36;10.52;;;4.13;;
5616;SDS011;2830;50.656;7.568;2023-01-28T01:40:03;10.43;;;3.85;;
5616;SDS011;2830;50.656;7.568;2023-01-28T01:42:32;11.05;;;4.10;;
5616;SDS011;2830;50.656;7.568;2023-01-28T01:45:00;12.00;;;4.13;;
5616;SDS011;2830;50.656;7.568;2023-01-28T01:52:48;10.70;;;3.85;;
5616;SDS011;2830;50.656;7.568;2023-01-28T01:55:17;10.38;;;3.58;;
5616;SDS011;2830;50.656;7.568;2023-01-28T01:57:46;12.10;;;4.60;;
5616;SDS011;2830;50.656;7.568;2023-01-28T02:00:14;10.00;;;3.63;;
5616;SDS011;2830;50.656;7.568;2023-01-28T02:02:42;9.20;;;3.38;;
5616;SDS011;2830;50.656;7.568;2023-01-28T02:05:11;9.75;;;3.63;;
5616;SDS011;2830;50.656;7.568;2023-01-28T02:07:40;11.70;;;3.60;;
5616;SDS011;2830;50.656;7.568;2023-01-28T02:10:07;10.45;;;4.00;;
5616;SDS011;2830;50.656;7.568;2023-01-28T02:12:35;11.90;;;3.95;;
5616;SDS011;2830;50.656;7.568;2023-01-28T02:15:04;9.60;;;3.70;;
5616;SDS011;2830;50.656;7.568;2023-01-28T02:17:32;9.95;;;3.58;;
5616;SDS011;2830;50.656;7.568;2023-01-28T02:20:00;12.65;;;4.80;;
5616;SDS011;2830;50.656;7.568;2023-01-28T02:25:09;10.82;;;3.42;;
5616;SDS011;2830;50.656;7.568;2023-01-28T02:30:28;13.75;;;3.55;;
5616;SDS011;2830;50.656;7.568;2023-01-28T02:32:56;11.13;;;3.97;;
5616;SDS011;2830;50.656;7.568;2023-01-28T02:35:42;11.10;;;3.90;;
5616;SDS011;2830;50.656;7.568;2023-01-28T02:38:17;12.20;;;3.38;;
5616;SDS011;2830;50.656;7.568;2023-01-28T02:40:49;13.32;;;4.45;;
5616;SDS011;2830;50.656;7.568;2023-01-28T02:43:44;13.30;;;4.63;;
5616;SDS011;2830;50.656;7.568;2023-01-28T02:46:13;11.13;;;4.00;;
5616;SDS011;2830;50.656;7.568;2023-01-28T02:49:00;11.98;;;4.45;;
5616;SDS011;2830;50.656;7.568;2023-01-28T02:51:31;11.60;;;4.45;;
5616;SDS011;2830;50.656;7.568;2023-01-28T02:54:05;11.05;;;3.97;;
5616;SDS011;2830;50.656;7.568;2023-01-28T02:56:40;14.32;;;4.93;;
5616;SDS011;2830;50.656;7.568;2023-01-28T02:59:16;13.63;;;5.72;;
5616;SDS011;2830;50.656;7.568;2023-01-28T03:01:59;13.70;;;5.38;;
5616;SDS011;2830;50.656;7.568;2023-01-28T03:04:29;11.80;;;4.95;;
5616;SDS011;2830;50.656;7.568;2023-01-28T03:06:59;13.43;;;5.63;;
5616;SDS011;2830;50.656;7.568;2023-01-28T03:09:29;16.38;;;5.90;;
5616;SDS011;2830;50.656;7.568;2023-01-28T03:11:58;11.75;;;4.95;;
5616;SDS011;2830;50.656;7.568;2023-01-28T03:14:46;13.80;;;5.53;;
5616;SDS011;2830;50.656;7.568;2023-01-28T03:17:38;14.32;;;5.47;;
5616;SDS011;2830;50.656;7.568;2023-01-28T03:20:27;14.30;;;5.88;;
5616;SDS011;2830;50.656;7.568;2023-01-28T03:23:16;13.13;;;5.50;;
5616;SDS011;2830;50.656;7.568;2023-01-28T03:26:05;13.27;;;5.63;;
5616;SDS011;2830;50.656;7.568;2023-01-28T03:28:52;16.30;;;6.60;;
5616;SDS011;2830;50.656;7.568;2023-01-28T03:31:39;13.70;;;5.30;;
5616;SDS011;2830;50.656;7.568;2023-01-28T03:34:25;12.82;;;5.50;;
5616;SDS011;2830;50.656;7.568;2023-01-28T03:37:11;14.00;;;5.72;;
5616;SDS011;2830;50.656;7.568;2023-01-28T03:39:40;13.88;;;5.50;;
5616;SDS011;2830;50.656;7.568;2023-01-28T03:42:08;13.68;;;5.65;;
5616;SDS011;2830;50.656;7.568;2023-01-28T03:44:35;13.88;;;5.57;;
5616;SDS011;2830;50.656;7.568;2023-01-28T03:47:25;19.65;;;5.30;;
5616;SDS011;2830;50.656;7.568;2023-01-28T03:49:53;14.30;;;6.25;;
5616;SDS011;2830;50.656;7.568;2023-01-28T03:52:23;12.43;;;5.05;;
5616;SDS011;2830;50.656;7.568;2023-01-28T03:54:50;12.35;;;5.32;;
5616;SDS011;2830;50.656;7.568;2023-01-28T03:57:22;11.85;;;4.70;;
5616;SDS011;2830;50.656;7.568;2023-01-28T03:59:49;12.57;;;4.93;;
5616;SDS011;2830;50.656;7.568;2023-01-28T04:02:18;11.68;;;4.72;;
5616;SDS011;2830;50.656;7.568;2023-01-28T04:04:45;12.65;;;4.55;;
5616;SDS011;2830;50.656;7.568;2023-01-28T04:07:13;11.82;;;4.82;;
5616;SDS011;2830;50.656;7.568;2023-01-28T04:09:40;13.77;;;5.63;;
5616;SDS011;2830;50.656;7.568;2023-01-28T04:12:08;11.98;;;4.82;;
5616;SDS011;2830;50.656;7.568;2023-01-28T04:14:36;12.32;;;4.75;;
5616;SDS011;2830;50.656;7.568;2023-01-28T04:17:05;12.07;;;4.30;;
5616;SDS011;2830;50.656;7.568;2023-01-28T04:19:35;10.95;;;4.20;;
5616;SDS011;2830;50.656;7.568;2023-01-28T04:22:06;11.23;;;4.03;;
5616;SDS011;2830;50.656;7.568;2023-01-28T04:24:34;13.25;;;4.30;;
5616;SDS011;2830;50.656;7.568;2023-01-28T04:27:01;15.32;;;4.57;;
5616;SDS011;2830;50.656;7.568;2023-01-28T04:29:28;10.80;;;4.05;;
5616;SDS011;2830;50.656;7.568;2023-01-28T04:31:55;11.32;;;3.80;;
5616;SDS011;2830;50.656;7.568;2023-01-28T04:34:22;11.00;;;4.10;;
5616;SDS011;2830;50.656;7.568;2023-01-28T04:36:49;11.00;;;4.32;;
5616;SDS011;2830;50.656;7.568;2023-01-28T04:39:16;10.40;;;3.95;;
5616;SDS011;2830;50.656;7.568;2023-01-28T04:41:43;12.23;;;3.42;;
5616;SDS011;2830;50.656;7.568;2023-01-28T04:44:10;11.10;;;3.40;;
5616;SDS011;2830;50.656;7.568;2023-01-28T04:46:38;11.30;;;3.85;;
5616;SDS011;2830;50.656;7.568;2023-01-28T04:49:05;10.70;;;4.00;;
5616;SDS011;2830;50.656;7.568;2023-01-28T04:51:32;10.18;;;3.30;;
5616;SDS011;2830;50.656;7.568;2023-01-28T04:54:00;9.80;;;3.50;;
5616;SDS011;2830;50.656;7.568;2023-01-28T04:56:27;9.95;;;3.17;;
5616;SDS011;2830;50.656;7.568;2023-01-28T04:58:54;11.23;;;3.33;;
5616;SDS011;2830;50.656;7.568;2023-01-28T05:01:21;10.32;;;3.40;;
5616;SDS011;2830;50.656;7.568;2023-01-28T05:03:48;8.88;;;2.85;;
5616;SDS011;2830;50.656;7.568;2023-01-28T05:06:15;10.25;;;3.22;;
5616;SDS011;2830;50.656;7.568;2023-01-28T05:08:42;10.18;;;2.97;;
5616;SDS011;2830;50.656;7.568;2023-01-28T05:11:11;15.70;;;3.38;;
5616;SDS011;2830;50.656;7.568;2023-01-28T05:13:38;8.80;;;2.55;;
5616;SDS011;2830;50.656;7.568;2023-01-28T05:16:05;10.43;;;3.00;;
5616;SDS011;2830;50.656;7.568;2023-01-28T05:18:33;9.38;;;2.80;;
5616;SDS011;2830;50.656;7.568;2023-01-28T05:21:00;9.80;;;2.88;;
5616;SDS011;2830;50.656;7.568;2023-01-28T05:23:27;9.75;;;3.10;;
5616;SDS011;2830;50.656;7.568;2023-01-28T05:25:54;14.88;;;5.28;;
5616;SDS011;2830;50.656;7.568;2023-01-28T05:28:21;9.77;;;2.75;;
5616;SDS011;2830;50.656;7.568;2023-01-28T05:30:48;9.25;;;3.15;;
5616;SDS011;2830;50.656;7.568;2023-01-28T05:33:15;12.73;;;3.15;;
5616;SDS011;2830;50.656;7.568;2023-01-28T05:35:42;11.40;;;3.58;;
5616;SDS011;2830;50.656;7.568;2023-01-28T05:38:09;9.18;;;2.65;;
5616;SDS011;2830;50.656;7.568;2023-01-28T05:40:40;7.93;;;2.13;;
5616;SDS011;2830;50.656;7.568;2023-01-28T05:43:07;8.70;;;2.30;;
5616;SDS011;2830;50.656;7.568;2023-01-28T05:45:34;9.55;;;2.88;;
5616;SDS011;2830;50.656;7.568;2023-01-28T05:48:01;7.85;;;2.08;;
5616;SDS011;2830;50.656;7.568;2023-01-28T05:50:28;8.95;;;2.78;;
5616;SDS011;2830;50.656;7.568;2023-01-28T05:52:55;10.18;;;2.42;;
5616;SDS011;2830;50.656;7.568;2023-01-28T05:55:22;9.00;;;2.67;;
5616;SDS011;2830;50.656;7.568;2023-01-28T05:57:49;8.63;;;2.47;;
5616;SDS011;2830;50.656;7.568;2023-01-28T06:00:17;9.43;;;2.70;;
5616;SDS011;2830;50.656;7.568;2023-01-28T06:02:44;7.40;;;1.73;;
5616;SDS011;2830;50.656;7.568;2023-01-28T06:05:11;7.90;;;1.85;;
5616;SDS011;2830;50.656;7.568;2023-01-28T06:07:38;7.90;;;1.85;;
5616;SDS011;2830;50.656;7.568;2023-01-28T06:10:05;7.53;;;1.77;;
5616;SDS011;2830;50.656;7.568;2023-01-28T06:12:32;9.07;;;2.15;;
5616;SDS011;2830;50.656;7.568;2023-01-28T06:14:59;10.15;;;2.67;;
5616;SDS011;2830;50.656;7.568;2023-01-28T06:17:26;7.05;;;1.63;;
5616;SDS011;2830;50.656;7.568;2023-01-28T06:19:54;7.38;;;1.75;;
5616;SDS011;2830;50.656;7.568;2023-01-28T06:22:21;8.52;;;2.15;;
5616;SDS011;2830;50.656;7.568;2023-01-28T06:24:48;7.10;;;1.80;;
5616;SDS011;2830;50.656;7.568;2023-01-28T06:27:15;8.73;;;2.55;;
5616;SDS011;2830;50.656;7.568;2023-01-28T06:29:42;6.50;;;1.40;;
5616;SDS011;2830;50.656;7.568;2023-01-28T06:32:09;8.18;;;1.88;;
5616;SDS011;2830;50.656;7.568;2023-01-28T06:34:36;10.05;;;3.80;;
5616;SDS011;2830;50.656;7.568;2023-01-28T06:37:04;9.60;;;2.88;;
5616;SDS011;2830;50.656;7.568;2023-01-28T06:39:31;7.18;;;1.90;;
5616;SDS011;2830;50.656;7.568;2023-01-28T06:41:58;8.05;;;2.47;;
5616;SDS011;2830;50.656;7.568;2023-01-28T06:44:25;7.20;;;1.90;;
5616;SDS011;2830;50.656;7.568;2023-01-28T06:46:52;9.98;;;2.67;;
5616;SDS011;2830;50.656;7.568;2023-01-28T06:49:20;9.10;;;2.00;;
5616;SDS011;2830;50.656;7.568;2023-01-28T06:51:47;7.63;;;1.80;;
5616;SDS011;2830;50.656;7.568;2023-01-28T06:54:14;9.25;;;1.67;;
5616;SDS011;2830;50.656;7.568;2023-01-28T06:56:41;7.20;;;1.60;;
5616;SDS011;2830;50.656;7.568;2023-01-28T06:59:09;7.70;;;1.70;;
5616;SDS011;2830;50.656;7.568;2023-01-28T07:01:36;8.90;;;2.15;;
5616;SDS011;2830;50.656;7.568;2023-01-28T07:04:03;7.72;;;1.95;;
5616;SDS011;2830;50.656;7.568;2023-01-28T07:06:30;8.95;;;2.25;;
5616;SDS011;2830;50.656;7.568;2023-01-28T07:08:57;8.15;;;1.95;;
5616;SDS011;2830;50.656;7.568;2023-01-28T07:11:24;8.10;;;1.75;;
5616;SDS011;2830;50.656;7.568;2023-01-28T07:13:51;8.48;;;2.22;;
5616;SDS011;2830;50.656;7.568;2023-01-28T07:16:18;7.72;;;2.10;;
5616;SDS011;2830;50.656;7.568;2023-01-28T07:18:45;8.68;;;2.35;;
5616;SDS011;2830;50.656;7.568;2023-01-28T07:21:12;8.68;;;2.42;;
5616;SDS011;2830;50.656;7.568;2023-01-28T07:23:39;7.93;;;2.20;;
5616;SDS011;2830;50.656;7.568;2023-01-28T07:26:06;7.72;;;1.83;;
5616;SDS011;2830;50.656;7.568;2023-01-28T07:28:33;8.05;;;2.00;;
5616;SDS011;2830;50.656;7.568;2023-01-28T07:31:00;7.75;;;1.95;;
5616;SDS011;2830;50.656;7.568;2023-01-28T07:33:28;9.40;;;2.42;;
5616;SDS011;2830;50.656;7.568;2023-01-28T07:35:55;9.27;;;3.15;;
5616;SDS011;2830;50.656;7.568;2023-01-28T07:38:22;8.25;;;2.22;;
5616;SDS011;2830;50.656;7.568;2023-01-28T07:40:49;7.60;;;2.00;;
5616;SDS011;2830;50.656;7.568;2023-01-28T07:43:16;11.95;;;2.45;;
5616;SDS011;2830;50.656;7.568;2023-01-28T07:45:44;7.70;;;1.83;;
5616;SDS011;2830;50.656;7.568;2023-01-28T07:48:13;8.30;;;1.95;;
5616;SDS011;2830;50.656;7.568;2023-01-28T07:50:40;9.18;;;1.98;;
5616;SDS011;2830;50.656;7.568;2023-01-28T07:53:08;8.25;;;2.00;;
5616;SDS011;2830;50.656;7.568;2023-01-28T07:55:36;8.00;;;1.83;;
5616;SDS011;2830;50.656;7.568;2023-01-28T07:58:06;12.98;;;2.30;;
5616;SDS011;2830;50.656;7.568;2023-01-28T08:00:34;8.00;;;2.20;;
5616;SDS011;2830;50.656;7.568;2023-01-28T08:03:03;16.75;;;3.00;;
5616;SDS011;2830;50.656;7.568;2023-01-28T08:05:35;11.55;;;3.70;;
5616;SDS011;2830;50.656;7.568;2023-01-28T08:08:04;10.50;;;3.47;;
5616;SDS011;2830;50.656;7.568;2023-01-28T08:10:31;10.13;;;3.85;;
5616;SDS011;2830;50.656;7.568;2023-01-28T08:12:58;9.32;;;2.90;;
5616;SDS011;2830;50.656;7.568;2023-01-28T08:15:26;8.30;;;3.00;;
5616;SDS011;2830;50.656;7.568;2023-01-28T08:17:53;7.40;;;2.10;;
5616;SDS011;2830;50.656;7.568;2023-01-28T08:20:21;8.68;;;2.78;;
5616;SDS011;2830;50.656;7.568;2023-01-28T08:22:48;8.73;;;2.75;;
5616;SDS011;2830;50.656;7.568;2023-01-28T08:25:16;8.65;;;2.75;;
5616;SDS011;2830;50.656;7.568;2023-01-28T08:27:43;9.48;;;3.38;;
5616;SDS011;2830;50.656;7.568;2023-01-28T08:30:10;9.20;;;3.92;;
5616;SDS011;2830;50.656;7.568;2023-01-28T08:32:38;8.38;;;3.28;;
5616;SDS011;2830;50.656;7.568;2023-01-28T08:35:05;10.45;;;3.60;;
5616;SDS011;2830;50.656;7.568;2023-01-28T08:37:32;11.48;;;3.70;;
5616;SDS011;2830;50.656;7.568;2023-01-28T08:40:00;16.67;;;9.30;;
5616;SDS011;2830;50.656;7.568;2023-01-28T08:42:27;55.75;;;30.52;;
5616;SDS011;2830;50.656;7.568;2023-01-28T08:44:54;20.05;;;10.65;;
5616;SDS011;2830;50.656;7.568;2023-01-28T08:47:21;11.50;;;4.63;;
5616;SDS011;2830;50.656;7.568;2023-01-28T08:49:48;10.50;;;3.67;;
5616;SDS011;2830;50.656;7.568;2023-01-28T08:52:15;15.20;;;6.57;;
5616;SDS011;2830;50.656;7.568;2023-01-28T08:54:42;11.00;;;4.22;;
5616;SDS011;2830;50.656;7.568;2023-01-28T08:57:09;11.57;;;3.92;;
5616;SDS011;2830;50.656;7.568;2023-01-28T08:59:36;9.77;;;3.55;;
5616;SDS011;2830;50.656;7.568;2023-01-28T09:02:12;11.63;;;3.92;;
5616;SDS011;2830;50.656;7.568;2023-01-28T09:04:56;11.05;;;3.25;;
5616;SDS011;2830;50.656;7.568;2023-01-28T09:07:23;8.60;;;2.22;;
5616;SDS011;2830;50.656;7.568;2023-01-28T09:09:50;10.65;;;3.40;;
5616;SDS011;2830;50.656;7.568;2023-01-28T09:12:17;9.13;;;2.60;;
5616;SDS011;2830;50.656;7.568;2023-01-28T09:14:44;10.13;;;3.10;;
5616;SDS011;2830;50.656;7.568;2023-01-28T09:17:11;8.88;;;2.78;;
5616;SDS011;2830;50.656;7.568;2023-01-28T09:19:38;10.75;;;2.60;;
5616;SDS011;2830;50.656;7.568;2023-01-28T09:22:05;9.27;;;2.88;;
5616;SDS011;2830;50.656;7.568;2023-01-28T09:24:32;8.95;;;2.60;;
5616;SDS011;2830;50.656;7.568;2023-01-28T09:26:59;8.65;;;2.22;;
5616;SDS011;2830;50.656;7.568;2023-01-28T09:29:26;8.90;;;2.50;;
5616;SDS011;2830;50.656;7.568;2023-01-28T09:31:53;10.93;;;3.92;;
5616;SDS011;2830;50.656;7.568;2023-01-28T09:34:20;9.88;;;3.45;;
5616;SDS011;2830;50.656;7.568;2023-01-28T09:36:48;26.67;;;13.45;;
5616;SDS011;2830;50.656;7.568;2023-01-28T09:39:15;18.92;;;8.98;;
5616;SDS011;2830;50.656;7.568;2023-01-28T09:41:45;13.00;;;6.90;;
5616;SDS011;2830;50.656;7.568;2023-01-28T09:47:19;9.90;;;3.10;;
5616;SDS011;2830;50.656;7.568;2023-01-28T09:49:48;8.43;;;2.20;;
5616;SDS011;2830;50.656;7.568;2023-01-28T09:52:17;8.50;;;2.05;;
5616;SDS011;2830;50.656;7.568;2023-01-28T09:54:46;7.95;;;1.45;;
5616;SDS011;2830;50.656;7.568;2023-01-28T09:57:25;8.50;;;2.10;;
5616;SDS011;2830;50.656;7.568;2023-01-28T09:59:52;9.20;;;2.10;;
5616;SDS011;2830;50.656;7.568;2023-01-28T10:05:12;8.98;;;2.30;;
5616;SDS011;2830;50.656;7.568;2023-01-28T10:10:43;9.43;;;1.70;;
5616;SDS011;2830;50.656;7.568;2023-01-28T10:16:04;8.30;;;1.73;;
5616;SDS011;2830;50.656;7.568;2023-01-28T10:18:43;8.50;;;1.92;;
5616;SDS011;2830;50.656;7.568;2023-01-28T10:23:48;9.68;;;2.53;;
5616;SDS011;2830;50.656;7.568;2023-01-28T10:26:21;8.85;;;2.10;;
5616;SDS011;2830;50.656;7.568;2023-01-28T10:28:52;8.88;;;1.90;;
5616;SDS011;2830;50.656;7.568;2023-01-28T10:31:20;9.10;;;2.30;;
5616;SDS011;2830;50.656;7.568;2023-01-28T10:33:47;8.75;;;2.05;;
5616;SDS011;2830;50.656;7.568;2023-01-28T10:36:14;8.70;;;2.22;;
5616;SDS011;2830;50.656;7.568;2023-01-28T10:38:43;8.43;;;2.45;;
5616;SDS011;2830;50.656;7.568;2023-01-28T10:41:10;8.82;;;2.60;;
5616;SDS011;2830;50.656;7.568;2023-01-28T10:43:39;11.50;;;2.20;;
5616;SDS011;2830;50.656;7.568;2023-01-28T10:46:24;8.00;;;2.00;;
5616;SDS011;2830;50.656;7.568;2023-01-28T10:51:29;14.95;;;3.35;;
5616;SDS011;2830;50.656;7.568;2023-01-28T10:53:56;17.10;;;3.72;;
5616;SDS011;2830;50.656;7.568;2023-01-28T10:56:24;9.48;;;3.30;;
5616;SDS011;2830;50.656;7.568;2023-01-28T11:01:19;10.63;;;3.63;;
5616;SDS011;2830;50.656;7.568;2023-01-28T11:03:54;11.55;;;4.35;;
5616;SDS011;2830;50.656;7.568;2023-01-28T11:06:26;9.90;;;2.70;;
5616;SDS011;2830;50.656;7.568;2023-01-28T11:08:54;8.90;;;2.53;;
5616;SDS011;2830;50.656;7.568;2023-01-28T11:11:23;11.63;;;3.55;;
5616;SDS011;2830;50.656;7.568;2023-01-28T11:13:51;10.60;;;3.72;;
5616;SDS011;2830;50.656;7.568;2023-01-28T11:16:23;10.88;;;3.70;;
5616;SDS011;2830;50.656;7.568;2023-01-28T11:18:53;11.48;;;3.65;;
5616;SDS011;2830;50.656;7.568;2023-01-28T11:21:21;15.68;;;3.67;;
5616;SDS011;2830;50.656;7.568;2023-01-28T11:26:46;9.90;;;3.50;;
5616;SDS011;2830;50.656;7.568;2023-01-28T11:29:21;10.02;;;4.00;;
5616;SDS011;2830;50.656;7.568;2023-01-28T11:31:49;15.10;;;3.92;;
5616;SDS011;2830;50.656;7.568;2023-01-28T11:34:18;16.00;;;4.28;;
5616;SDS011;2830;50.656;7.568;2023-01-28T11:36:49;10.63;;;3.90;;
5616;SDS011;2830;50.656;7.568;2023-01-28T11:39:19;9.65;;;3.33;;
5616;SDS011;2830;50.656;7.568;2023-01-28T11:41:47;9.85;;;3.17;;
5616;SDS011;2830;50.656;7.568;2023-01-28T11:44:24;9.40;;;3.13;;
5616;SDS011;2830;50.656;7.568;2023-01-28T11:46:56;10.15;;;3.28;;
5616;SDS011;2830;50.656;7.568;2023-01-28T11:51:57;8.80;;;2.85;;
5616;SDS011;2830;50.656;7.568;2023-01-28T12:02:32;10.95;;;4.28;;
5616;SDS011;2830;50.656;7.568;2023-01-28T12:05:15;9.85;;;3.08;;
5616;SDS011;2830;50.656;7.568;2023-01-28T12:07:53;9.75;;;3.20;;
5616;SDS011;2830;50.656;7.568;2023-01-28T12:15:46;10.05;;;2.65;;
5616;SDS011;2830;50.656;7.568;2023-01-28T12:21:03;9.73;;;2.80;;
5616;SDS011;2830;50.656;7.568;2023-01-28T12:31:07;10.77;;;2.90;;
5616;SDS011;2830;50.656;7.568;2023-01-28T12:33:41;11.35;;;4.60;;
5616;SDS011;2830;50.656;7.568;2023-01-28T12:41:31;10.70;;;3.60;;
5616;SDS011;2830;50.656;7.568;2023-01-28T12:44:05;10.85;;;4.03;;
5616;SDS011;2830;50.656;7.568;2023-01-28T12:52:27;9.88;;;3.65;;
5616;SDS011;2830;50.656;7.568;2023-01-28T12:54:37;10.93;;;3.78;;
5616;SDS011;2830;50.656;7.568;2023-01-28T12:57:05;11.00;;;4.20;;
5616;SDS011;2830;50.656;7.568;2023-01-28T12:59:37;13.30;;;4.80;;
5616;SDS011;2830;50.656;7.568;2023-01-28T13:02:14;11.40;;;5.20;;
5616;SDS011;2830;50.656;7.568;2023-01-28T13:07:33;12.02;;;4.85;;
5616;SDS011;2830;50.656;7.568;2023-01-28T13:10:03;12.85;;;5.50;;
5616;SDS011;2830;50.656;7.568;2023-01-28T13:12:31;12.27;;;5.10;;
5616;SDS011;2830;50.656;7.568;2023-01-28T13:14:59;11.43;;;4.10;;
5616;SDS011;2830;50.656;7.568;2023-01-28T13:17:27;13.65;;;4.18;;
5616;SDS011;2830;50.656;7.568;2023-01-28T13:19:54;11.00;;;4.88;;
5616;SDS011;2830;50.656;7.568;2023-01-28T13:22:26;10.82;;;4.72;;
5616;SDS011;2830;50.656;7.568;2023-01-28T13:24:54;11.50;;;5.03;;
5616;SDS011;2830;50.656;7.568;2023-01-28T13:27:25;10.93;;;4.50;;
5616;SDS011;2830;50.656;7.568;2023-01-28T13:30:00;11.85;;;4.35;;
5616;SDS011;2830;50.656;7.568;2023-01-28T13:32:29;11.10;;;4.18;;
5616;SDS011;2830;50.656;7.568;2023-01-28T13:35:04;10.13;;;3.90;;
5616;SDS011;2830;50.656;7.568;2023-01-28T13:37:38;10.75;;;4.90;;
5616;SDS011;2830;50.656;7.568;2023-01-28T13:40:16;10.55;;;4.40;;
5616;SDS011;2830;50.656;7.568;2023-01-28T13:45:27;11.25;;;4.20;;
5616;SDS011;2830;50.656;7.568;2023-01-28T13:47:59;13.07;;;6.88;;
5616;SDS011;2830;50.656;7.568;2023-01-28T13:50:32;14.15;;;9.15;;
5616;SDS011;2830;50.656;7.568;2023-01-28T13:53:06;15.02;;;7.00;;
5616;SDS011;2830;50.656;7.568;2023-01-28T13:55:41;17.35;;;13.32;;
5616;SDS011;2830;50.656;7.568;2023-01-28T13:58:18;11.40;;;5.68;;
5616;SDS011;2830;50.656;7.568;2023-01-28T14:06:14;12.05;;;5.78;;
5616;SDS011;2830;50.656;7.568;2023-01-28T14:19:18;10.88;;;4.57;;
5616;SDS011;2830;50.656;7.568;2023-01-28T14:21:45;10.23;;;4.57;;
5616;SDS011;2830;50.656;7.568;2023-01-28T14:24:14;10.50;;;5.05;;
5616;SDS011;2830;50.656;7.568;2023-01-28T14:26:45;9.35;;;3.97;;
5616;SDS011;2830;50.656;7.568;2023-01-28T14:32:04;13.43;;;4.90;;
5616;SDS011;2830;50.656;7.568;2023-01-28T14:34:33;15.55;;;7.53;;
5616;SDS011;2830;50.656;7.568;2023-01-28T14:37:02;10.85;;;4.55;;
5616;SDS011;2830;50.656;7.568;2023-01-28T14:39:31;9.63;;;3.90;;
5616;SDS011;2830;50.656;7.568;2023-01-28T14:42:00;11.18;;;3.75;;
5616;SDS011;2830;50.656;7.568;2023-01-28T14:44:32;9.90;;;3.75;;
5616;SDS011;2830;50.656;7.568;2023-01-28T14:47:13;9.68;;;4.18;;
5616;SDS011;2830;50.656;7.568;2023-01-28T14:49:57;11.32;;;4.18;;
5616;SDS011;2830;50.656;7.568;2023-01-28T14:52:41;10.35;;;4.32;;
5616;SDS011;2830;50.656;7.568;2023-01-28T14:57:56;9.93;;;4.13;;
5616;SDS011;2830;50.656;7.568;2023-01-28T15:00:25;11.35;;;4.15;;
5616;SDS011;2830;50.656;7.568;2023-01-28T15:02:53;15.18;;;6.53;;
5616;SDS011;2830;50.656;7.568;2023-01-28T15:05:24;13.35;;;5.78;;
5616;SDS011;2830;50.656;7.568;2023-01-28T15:07:52;10.25;;;4.00;;
5616;SDS011;2830;50.656;7.568;2023-01-28T15:10:27;11.00;;;4.50;;
5616;SDS011;2830;50.656;7.568;2023-01-28T15:12:59;10.05;;;4.20;;
5616;SDS011;2830;50.656;7.568;2023-01-28T15:15:38;13.43;;;6.82;;
5616;SDS011;2830;50.656;7.568;2023-01-28T15:18:10;13.80;;;5.10;;
5616;SDS011;2830;50.656;7.568;2023-01-28T15:20:38;11.18;;;4.38;;
5616;SDS011;2830;50.656;7.568;2023-01-28T15:23:11;13.15;;;5.22;;
5616;SDS011;2830;50.656;7.568;2023-01-28T15:25:44;11.85;;;5.10;;
5616;SDS011;2830;50.656;7.568;2023-01-28T15:28:14;11.32;;;4.57;;
5616;SDS011;2830;50.656;7.568;2023-01-28T15:30:43;12.85;;;6.10;;
5616;SDS011;2830;50.656;7.568;2023-01-28T15:33:14;11.70;;;4.57;;
5616;SDS011;2830;50.656;7.568;2023-01-28T15:35:49;11.50;;;4.30;;
5616;SDS011;2830;50.656;7.568;2023-01-28T15:38:16;11.73;;;4.60;;
5616;SDS011;2830;50.656;7.568;2023-01-28T15:40:44;12.75;;;4.47;;
5616;SDS011;2830;50.656;7.568;2023-01-28T15:43:47;10.40;;;3.58;;
5616;SDS011;2830;50.656;7.568;2023-01-28T15:46:08;11.85;;;4.93;;
5616;SDS011;2830;50.656;7.568;2023-01-28T15:48:40;10.32;;;4.22;;
5616;SDS011;2830;50.656;7.568;2023-01-28T15:51:13;12.68;;;6.05;;
5616;SDS011;2830;50.656;7.568;2023-01-28T15:53:43;12.43;;;5.50;;
5616;SDS011;2830;50.656;7.568;2023-01-28T15:56:13;22.65;;;12.95;;
5616;SDS011;2830;50.656;7.568;2023-01-28T15:58:41;18.25;;;10.52;;
5616;SDS011;2830;50.656;7.568;2023-01-28T16:03:36;14.50;;;7.90;;
5616;SDS011;2830;50.656;7.568;2023-01-28T16:08:38;14.70;;;7.38;;
5616;SDS011;2830;50.656;7.568;2023-01-28T16:11:07;13.20;;;6.75;;
5616;SDS011;2830;50.656;7.568;2023-01-28T16:13:35;12.98;;;6.30;;
5616;SDS011;2830;50.656;7.568;2023-01-28T16:16:06;13.23;;;5.60;;
5616;SDS011;2830;50.656;7.568;2023-01-28T16:18:41;13.60;;;5.70;;
5616;SDS011;2830;50.656;7.568;2023-01-28T16:21:17;11.38;;;5.70;;
5616;SDS011;2830;50.656;7.568;2023-01-28T16:24:02;15.55;;;6.63;;
5616;SDS011;2830;50.656;7.568;2023-01-28T16:26:31;12.95;;;6.30;;
5616;SDS011;2830;50.656;7.568;2023-01-28T16:29:12;16.15;;;8.70;;
5616;SDS011;2830;50.656;7.568;2023-01-28T16:31:39;15.90;;;8.50;;
5616;SDS011;2830;50.656;7.568;2023-01-28T16:34:08;12.85;;;5.65;;
5616;SDS011;2830;50.656;7.568;2023-01-28T16:36:36;12.00;;;4.53;;
5616;SDS011;2830;50.656;7.568;2023-01-28T16:39:04;12.35;;;5.35;;
5616;SDS011;2830;50.656;7.568;2023-01-28T16:41:31;16.42;;;7.90;;
5616;SDS011;2830;50.656;7.568;2023-01-28T16:43:59;19.63;;;10.00;;
5616;SDS011;2830;50.656;7.568;2023-01-28T16:46:31;33.10;;;17.88;;
5616;SDS011;2830;50.656;7.568;2023-01-28T16:48:58;28.33;;;13.20;;
5616;SDS011;2830;50.656;7.568;2023-01-28T16:51:25;15.50;;;7.40;;
5616;SDS011;2830;50.656;7.568;2023-01-28T16:53:52;21.63;;;10.82;;
5616;SDS011;2830;50.656;7.568;2023-01-28T16:56:25;36.40;;;19.45;;
5616;SDS011;2830;50.656;7.568;2023-01-28T16:59:11;30.70;;;19.70;;
5616;SDS011;2830;50.656;7.568;2023-01-28T17:01:39;17.55;;;9.63;;
5616;SDS011;2830;50.656;7.568;2023-01-28T17:04:07;18.08;;;9.38;;
5616;SDS011;2830;50.656;7.568;2023-01-28T17:06:37;15.30;;;7.70;;